Time;durP1;ratioP1;P1;durP2;ratioP2;P2;SDS_P1;SDS_P2;PMS_P1;PMS_P2;Temp;Humidity;BMP_temperature;BMP_pressure;BME280_temperature;BME280_humidity;BME280_pressure;Samples;Min_cycle;Max_cycle;Signal;HPM_P1;HPM_P2
2021/08/12 00:00:39;;;;;;;5.03;1.80;;;;;;;14.77;92.89;99035.59;5046397;28;20021;-67
2021/08/12 00:03:05;;;;;;;4.00;1.90;;;;;;;14.79;93.20;99081.47;5049787;28;20074;-67
2021/08/12 00:05:30;;;;;;;5.55;2.10;;;;;;;14.68;92.89;99051.78;5065682;28;20027;-67
2021/08/12 00:07:56;;;;;;;7.13;3.13;;;;;;;14.79;93.23;99050.56;5065627;28;20017;-67
2021/08/12 00:10:21;;;;;;;7.85;3.47;;;;;;;14.75;93.35;99048.03;5065168;28;20029;-67
2021/08/12 00:12:46;;;;;;;4.85;2.97;;;;;;;14.75;93.17;99042.75;5066360;28;20095;-66
2021/08/12 00:15:12;;;;;;;8.02;3.20;;;;;;;14.80;93.27;99048.75;5066323;28;20020;-66
2021/08/12 00:17:37;;;;;;;5.18;3.15;;;;;;;14.70;92.55;99036.69;5058624;28;20022;-66
2021/08/12 00:20:03;;;;;;;5.10;2.58;;;;;;;14.48;92.08;99035.56;5046236;28;20049;-66
2021/08/12 00:22:28;;;;;;;5.32;3.03;;;;;;;14.59;92.62;99030.84;5045060;28;20317;-66
2021/08/12 00:24:54;;;;;;;4.75;2.95;;;;;;;14.62;92.00;99057.25;5045004;28;20032;-66
2021/08/12 00:27:19;;;;;;;7.88;2.55;;;;;;;14.55;92.16;99045.06;5044979;28;20248;-66
2021/08/12 00:29:45;;;;;;;2.45;2.17;;;;;;;14.40;92.83;99027.00;5046082;28;20026;-66
2021/08/12 00:32:10;;;;;;;2.30;1.63;;;;;;;14.45;92.88;99035.66;5045961;28;20300;-66
2021/08/12 00:34:35;;;;;;;4.63;2.20;;;;;;;14.48;92.42;99033.81;5055175;28;20092;-66
2021/08/12 00:37:02;;;;;;;4.03;2.15;;;;;;;14.41;92.38;99031.38;5065930;28;20039;-66
2021/08/12 00:39:28;;;;;;;4.18;2.70;;;;;;;14.18;91.94;99023.16;5065859;28;20084;-66
2021/08/12 00:41:54;;;;;;;4.38;2.50;;;;;;;14.23;92.93;99023.94;5064700;28;20043;-66
2021/08/12 00:44:19;;;;;;;3.35;1.98;;;;;;;14.26;92.51;99027.38;5064820;28;20047;-66
2021/08/12 00:46:44;;;;;;;3.35;2.03;;;;;;;14.17;92.88;99058.47;5065747;28;20239;-66
2021/08/12 00:49:10;;;;;;;14.18;2.05;;;;;;;14.15;93.40;99044.44;5065704;28;20024;-66
2021/08/12 00:51:39;;;;;;;7.13;2.50;;;;;;;14.18;93.12;99033.75;5065562;28;20021;-66
2021/08/12 00:54:04;;;;;;;4.32;2.42;;;;;;;14.19;92.93;99038.13;5064425;28;20017;-66
2021/08/12 00:56:30;;;;;;;6.43;2.17;;;;;;;14.15;92.01;99039.13;5065842;28;20092;-66
2021/08/12 00:58:55;;;;;;;4.25;2.08;;;;;;;14.03;92.24;99018.28;5064326;28;20020;-67
2021/08/12 01:01:21;;;;;;;7.13;2.22;;;;;;;14.01;92.74;99020.97;5065327;28;20044;-67
2021/08/12 01:03:46;;;;;;;4.55;3.10;;;;;;;14.00;93.41;99050.13;5053827;28;20103;-66
2021/08/12 01:06:17;;;;;;;7.22;2.53;;;;;;;13.94;92.90;99071.44;5045541;28;20052;-66
2021/08/12 01:09:06;;;;;;;7.13;2.45;;;;;;;13.84;93.19;99085.84;5045566;28;20260;-66
2021/08/12 01:11:35;;;;;;;3.60;2.58;;;;;;;13.91;93.93;99098.00;5044104;28;20021;-66
2021/08/12 01:14:03;;;;;;;4.93;2.20;;;;;;;14.02;93.34;99117.13;5045245;28;20024;-66
2021/08/12 01:16:31;;;;;;;4.53;2.40;;;;;;;14.01;93.19;99104.78;5045176;28;20329;-66
2021/08/12 01:19:21;;;;;;;4.00;2.25;;;;;;;13.86;93.06;99107.84;5044090;28;20368;-66
2021/08/12 01:21:56;;;;;;;4.05;1.92;;;;;;;13.81;93.04;99107.06;5045132;28;20080;-66
2021/08/12 01:24:29;;;;;;;3.90;2.22;;;;;;;13.84;92.93;99122.88;5045076;28;20213;-66
2021/08/12 01:27:00;;;;;;;12.95;2.60;;;;;;;13.83;92.92;99131.72;5045133;28;20217;-66
2021/08/12 01:29:48;;;;;;;4.40;2.45;;;;;;;13.79;93.55;99145.94;5054208;28;20321;-66
2021/08/12 01:32:19;;;;;;;9.05;2.92;;;;;;;13.80;93.12;99158.25;5064700;28;20205;-66
2021/08/12 01:34:56;;;;;;;4.47;2.00;;;;;;;13.82;93.05;99157.31;5064828;28;20021;-66
2021/08/12 01:37:24;;;;;;;4.35;2.35;;;;;;;13.90;92.68;99180.94;5064810;28;20083;-66
2021/08/12 01:39:52;;;;;;;5.35;2.20;;;;;;;13.92;92.79;99195.03;5064736;28;20021;-66
2021/08/12 01:42:18;;;;;;;3.65;2.22;;;;;;;13.81;92.01;99176.75;5064671;28;20090;-66
2021/08/12 01:44:45;;;;;;;4.45;1.83;;;;;;;13.77;92.42;99185.66;5064645;28;20255;-66
2021/08/12 01:47:12;;;;;;;4.10;2.10;;;;;;;13.73;91.54;99193.72;5064543;28;20032;-66
2021/08/12 01:49:39;;;;;;;12.73;3.88;;;;;;;13.67;92.32;99154.16;5064536;28;20028;-66
2021/08/12 01:52:06;;;;;;;4.45;1.65;;;;;;;13.68;92.52;99140.03;5064375;28;20088;-66
2021/08/12 01:54:33;;;;;;;3.80;2.33;;;;;;;13.72;92.29;99139.03;5064247;28;20025;-66
2021/08/12 01:56:59;;;;;;;3.65;1.50;;;;;;;13.64;92.95;99170.13;5057043;28;20241;-66
2021/08/12 01:59:26;;;;;;;4.07;1.65;;;;;;;13.66;92.61;99147.13;5044391;28;20028;-66
2021/08/12 02:01:53;;;;;;;3.85;1.67;;;;;;;13.70;92.66;99140.88;5044122;28;20099;-66
2021/08/12 02:04:20;;;;;;;4.35;1.52;;;;;;;13.73;92.65;99123.13;5044322;28;20029;-66
2021/08/12 02:06:47;;;;;;;3.90;2.30;;;;;;;13.59;92.57;99111.16;5044327;28;20049;-66
2021/08/12 02:09:13;;;;;;;4.95;2.13;;;;;;;13.54;92.51;99103.31;5044219;28;20021;-66
2021/08/12 02:11:39;;;;;;;8.10;1.70;;;;;;;13.61;92.71;99106.69;5044140;28;20029;-66
2021/08/12 02:14:04;;;;;;;5.03;1.80;;;;;;;13.63;93.05;99107.50;5044177;28;20021;-66
2021/08/12 02:16:29;;;;;;;6.45;1.98;;;;;;;13.61;92.51;99151.66;5044142;28;20032;-66
2021/08/12 02:18:55;;;;;;;3.50;2.50;;;;;;;13.57;92.72;99160.59;5044094;28;20056;-66
2021/08/12 02:21:27;;;;;;;8.90;3.30;;;;;;;13.46;92.61;99179.34;5042936;28;20048;-66
2021/08/12 02:24:00;;;;;;;7.63;2.53;;;;;;;13.36;92.69;99179.56;5044147;28;20041;-66
2021/08/12 02:26:33;;;;;;;4.80;2.60;;;;;;;13.39;92.56;99187.44;5062278;28;20264;-66
2021/08/12 02:29:00;;;;;;;8.25;2.97;;;;;;;13.40;92.74;99190.03;5064024;28;20024;-66
2021/08/12 02:31:29;;;;;;;11.75;3.30;;;;;;;13.27;93.01;99200.91;5063830;28;20088;-66
2021/08/12 02:33:56;;;;;;;5.35;2.35;;;;;;;13.35;92.58;99206.91;5063860;28;20096;-66
2021/08/12 02:36:22;;;;;;;6.60;2.67;;;;;;;13.34;92.67;99221.00;5063946;28;20036;-66
2021/08/12 02:38:48;;;;;;;5.10;2.40;;;;;;;13.43;92.12;99189.09;5063781;28;20220;-66
2021/08/12 02:41:18;;;;;;;3.33;2.25;;;;;;;13.45;91.96;99197.88;5063808;28;20216;-66
2021/08/12 02:43:44;;;;;;;4.38;2.85;;;;;;;13.34;92.06;99173.41;5063817;28;20046;-66
2021/08/12 02:46:11;;;;;;;3.53;2.42;;;;;;;13.29;91.94;99175.31;5062675;28;20027;-66
2021/08/12 02:48:38;;;;;;;3.67;1.98;;;;;;;13.26;92.14;99162.16;5043951;28;20029;-66
2021/08/12 02:51:05;;;;;;;3.92;2.50;;;;;;;13.29;92.46;99191.19;5043705;28;20083;-66
2021/08/12 02:53:32;;;;;;;6.85;1.90;;;;;;;13.27;92.57;99167.41;5043989;28;20328;-66
2021/08/12 02:55:59;;;;;;;4.88;2.40;;;;;;;13.28;92.51;99147.13;5043764;28;20339;-66
2021/08/12 02:58:31;;;;;;;6.70;2.30;;;;;;;13.26;92.07;99143.66;5043681;28;20025;-66
2021/08/12 03:00:57;;;;;;;9.10;2.90;;;;;;;13.13;92.58;99134.25;5046837;28;20163;-66
2021/08/12 03:03:24;;;;;;;3.30;2.28;;;;;;;13.07;91.94;99149.31;5063595;28;20324;-66
2021/08/12 03:05:50;;;;;;;3.00;2.00;;;;;;;13.11;92.30;99165.13;5062426;28;20021;-66
2021/08/12 03:08:19;;;;;;;2.38;1.48;;;;;;;13.17;92.92;99175.56;5065998;28;20103;-66
2021/08/12 03:10:44;;;;;;;4.30;2.15;;;;;;;13.13;92.82;99134.25;5066916;28;20328;-66
2021/08/12 03:13:10;;;;;;;4.30;1.63;;;;;;;13.03;92.43;99125.63;5067494;28;20088;-66
2021/08/12 03:15:37;;;;;;;2.92;2.00;;;;;;;13.10;92.73;99126.38;5067436;28;20082;-66
2021/08/12 03:18:03;;;;;;;3.05;1.88;;;;;;;13.11;92.27;99115.78;5067341;28;20021;-66
2021/08/12 03:20:29;;;;;;;6.32;2.03;;;;;;;12.95;92.00;99115.19;5067362;28;20086;-66
2021/08/12 03:22:56;;;;;;;4.53;1.35;;;;;;;13.09;91.79;99119.38;5067280;28;20021;-66
2021/08/12 03:25:22;;;;;;;3.72;1.40;;;;;;;13.10;92.09;99121.09;5049889;28;20021;-66
2021/08/12 03:27:47;;;;;;;2.55;1.55;;;;;;;13.14;91.79;99165.06;5047297;28;20022;-66
2021/08/12 03:30:13;;;;;;;2.05;1.52;;;;;;;13.13;91.23;99173.91;5047149;28;20107;-66
2021/08/12 03:32:38;;;;;;;6.82;1.95;;;;;;;13.00;91.75;99153.00;5047182;28;20025;-66
2021/08/12 03:35:05;;;;;;;6.32;1.75;;;;;;;12.91;92.18;99184.00;5047123;28;20044;-66
2021/08/12 03:37:30;;;;;;;5.30;1.80;;;;;;;12.97;92.28;99197.06;5047094;28;20025;-66
2021/08/12 03:39:56;;;;;;;1.98;1.33;;;;;;;13.01;92.17;99204.94;5047055;28;20140;-66
2021/08/12 03:42:21;;;;;;;6.40;1.73;;;;;;;12.96;92.94;99213.84;5046996;28;20029;-66
2021/08/12 03:44:46;;;;;;;4.95;1.90;;;;;;;13.00;93.05;99223.47;5052409;28;20317;-66
2021/08/12 03:47:12;;;;;;;3.08;1.70;;;;;;;13.04;93.02;99236.59;5066853;28;20044;-66
2021/08/12 03:49:38;;;;;;;5.13;2.72;;;;;;;12.91;92.88;99243.00;5066806;28;20067;-66
2021/08/12 03:52:04;;;;;;;4.28;2.45;;;;;;;12.93;93.48;99262.34;5066409;28;20071;-66
2021/08/12 03:54:30;;;;;;;5.55;2.58;;;;;;;13.03;93.06;99279.78;5066698;28;20021;-66
2021/08/12 03:56:55;;;;;;;4.65;2.50;;;;;;;13.06;92.79;99288.56;5066658;28;20322;-66
2021/08/12 03:59:21;;;;;;;6.32;2.40;;;;;;;12.99;92.61;99246.41;5066561;28;20052;-66
2021/08/12 04:01:47;;;;;;;5.20;2.85;;;;;;;13.07;92.69;99245.38;5051625;28;20049;-67
2021/08/12 04:04:12;;;;;;;7.68;2.92;;;;;;;12.99;92.60;99235.84;5045627;28;20371;-67
2021/08/12 04:06:38;;;;;;;5.97;2.63;;;;;;;13.06;92.89;99211.94;5065028;28;20398;-67
2021/08/12 04:09:03;;;;;;;8.00;3.17;;;;;;;13.13;92.44;99216.19;5065538;28;20023;-66
2021/08/12 04:11:29;;;;;;;10.38;2.40;;;;;;;13.20;92.05;99207.22;5064306;28;20028;-66
2021/08/12 04:13:54;;;;;;;10.73;3.03;;;;;;;13.12;92.40;99212.66;5065466;28;20363;-66
2021/08/12 04:16:19;;;;;;;8.18;2.90;;;;;;;13.06;92.49;99246.28;5065289;28;20086;-66
2021/08/12 04:18:45;;;;;;;5.60;2.72;;;;;;;13.07;92.22;99216.31;5063999;28;20028;-66
2021/08/12 04:21:10;;;;;;;5.63;2.60;;;;;;;13.12;92.59;99235.56;5048330;28;20049;-66
2021/08/12 04:23:36;;;;;;;3.70;2.33;;;;;;;13.18;92.18;99230.16;5045349;28;20211;-66
2021/08/12 04:26:01;;;;;;;6.28;2.63;;;;;;;13.03;91.66;99200.50;5048381;28;20025;-66
2021/08/12 04:28:27;;;;;;;3.70;1.98;;;;;;;12.85;91.33;99190.25;5064480;28;20036;-66
2021/08/12 04:30:52;;;;;;;7.35;3.05;;;;;;;12.68;92.24;99181.81;5063912;28;20028;-66
2021/08/12 04:33:18;;;;;;;5.13;2.72;;;;;;;12.70;92.75;99174.72;5055698;28;20185;-66
2021/08/12 04:35:44;;;;;;;6.40;2.65;;;;;;;12.64;92.75;99166.03;5045116;28;20339;-66
2021/08/12 04:38:10;;;;;;;5.68;2.40;;;;;;;12.76;92.91;99171.94;5045057;28;20048;-66
2021/08/12 04:40:36;;;;;;;7.05;2.33;;;;;;;12.92;92.23;99181.31;5050752;28;20032;-66
2021/08/12 04:43:02;;;;;;;6.25;2.53;;;;;;;12.98;92.68;99190.91;5057750;28;20087;-66
2021/08/12 04:45:28;;;;;;;8.27;2.38;;;;;;;13.00;92.22;99204.97;5065801;28;20048;-66
2021/08/12 04:48:03;;;;;;;3.83;2.30;;;;;;;13.12;92.18;99186.22;5064606;28;20025;-66
2021/08/12 04:50:28;;;;;;;2.78;2.10;;;;;;;13.22;91.97;99192.22;5065601;28;20067;-66
2021/08/12 04:52:54;;;;;;;7.95;2.05;;;;;;;13.32;91.72;99196.41;5065667;28;20025;-66
2021/08/12 04:55:19;;;;;;;5.68;2.72;;;;;;;13.37;91.76;99194.50;5064462;28;20036;-66
2021/08/12 04:57:45;;;;;;;5.18;2.53;;;;;;;13.41;91.79;99196.22;5064393;28;20025;-66
2021/08/12 05:00:10;;;;;;;5.90;2.60;;;;;;;13.46;91.64;99196.97;5065466;28;20320;-66
2021/08/12 05:02:36;;;;;;;3.55;1.67;;;;;;;13.59;91.28;99201.06;5065214;28;20122;-66
2021/08/12 05:05:02;;;;;;;4.80;1.95;;;;;;;13.62;90.63;99201.88;5065408;28;20020;-66
2021/08/12 05:07:27;;;;;;;4.03;2.30;;;;;;;13.65;90.63;99187.72;5065365;28;20029;-66
2021/08/12 05:09:53;;;;;;;4.63;2.20;;;;;;;13.76;90.33;99204.22;5065354;28;20052;-66
2021/08/12 05:12:19;;;;;;;3.63;1.88;;;;;;;13.82;90.30;99189.06;5065209;28;20025;-66
2021/08/12 05:14:45;;;;;;;5.82;2.53;;;;;;;13.76;90.71;99247.41;5064068;28;20021;-66
2021/08/12 05:17:10;;;;;;;3.58;2.50;;;;;;;13.79;91.27;99201.50;5065172;28;20025;-66
2021/08/12 05:19:36;;;;;;;5.20;2.25;;;;;;;14.03;89.93;99195.63;5065115;28;20212;-66
2021/08/12 05:22:01;;;;;;;3.92;2.40;;;;;;;14.39;89.52;99202.69;5065098;28;20029;-66
2021/08/12 05:24:27;;;;;;;4.32;2.30;;;;;;;14.67;87.65;99203.69;5065040;28;20193;-66
2021/08/12 05:26:52;;;;;;;7.45;2.88;;;;;;;14.50;87.61;99201.53;5063825;28;20025;-66
2021/08/12 05:29:17;;;;;;;4.85;2.63;;;;;;;14.75;87.78;99207.03;5064493;28;20256;-66
2021/08/12 05:31:43;;;;;;;7.68;2.67;;;;;;;14.91;86.64;99209.19;5064816;28;20025;-66
2021/08/12 05:34:08;;;;;;;4.55;2.25;;;;;;;15.18;87.06;99218.16;5064860;28;20336;-66
2021/08/12 05:36:34;;;;;;;3.83;2.15;;;;;;;15.43;86.01;99218.34;5064778;28;20033;-66
2021/08/12 05:38:59;;;;;;;6.88;2.00;;;;;;;15.80;84.12;99224.31;5064757;28;20224;-66
2021/08/12 05:41:25;;;;;;;5.65;2.20;;;;;;;16.09;82.73;99222.47;5064697;28;20076;-66
2021/08/12 05:43:50;;;;;;;6.82;2.70;;;;;;;16.60;82.22;99231.41;5064658;28;20071;-66
2021/08/12 05:46:16;;;;;;;4.88;2.03;;;;;;;17.12;80.12;99247.28;5046826;28;20075;-66
2021/08/12 05:48:41;;;;;;;4.40;2.28;;;;;;;17.58;79.29;99245.63;5064577;28;20029;-66
2021/08/12 05:51:06;;;;;;;6.60;1.85;;;;;;;18.13;78.58;99250.56;5064461;28;20316;-66
2021/08/12 05:53:32;;;;;;;3.05;1.88;;;;;;;18.56;77.01;99239.91;5064530;28;20032;-66
2021/08/12 05:55:57;;;;;;;3.67;2.22;;;;;;;18.72;75.76;99236.56;5064439;28;20024;-66
2021/08/12 05:58:23;;;;;;;3.60;1.85;;;;;;;18.99;75.24;99239.84;5064415;28;20295;-66
2021/08/12 06:00:48;;;;;;;5.75;2.35;;;;;;;19.37;74.18;99241.72;5064210;28;20050;-66
2021/08/12 06:03:14;;;;;;;9.25;2.70;;;;;;;19.20;74.39;99228.19;5063154;28;20021;-66
2021/08/12 06:05:42;;;;;;;6.55;2.60;;;;;;;19.17;74.90;99241.69;5064289;28;20363;-66
2021/08/12 06:08:10;;;;;;;4.22;2.63;;;;;;;19.29;74.29;99230.50;5064241;28;20358;-66
2021/08/12 06:10:35;;;;;;;7.07;2.83;;;;;;;18.89;75.54;99222.50;5064157;28;20146;-66
2021/08/12 06:13:01;;;;;;;5.70;3.10;;;;;;;18.77;76.11;99215.03;5064184;28;20320;-66
2021/08/12 06:15:28;;;;;;;6.95;2.90;;;;;;;18.58;77.23;99216.72;5064163;28;20047;-66
2021/08/12 06:17:54;;;;;;;6.05;2.72;;;;;;;18.82;76.51;99221.00;5064144;28;20070;-66
2021/08/12 06:20:20;;;;;;;6.00;2.78;;;;;;;18.79;77.22;99221.13;5064091;28;20024;-66
2021/08/12 06:22:47;;;;;;;7.85;3.22;;;;;;;18.96;77.38;99231.97;5064060;28;20029;-66
2021/08/12 06:25:13;;;;;;;7.82;2.85;;;;;;;19.44;75.92;99232.50;5062867;28;20025;-66
2021/08/12 06:27:39;;;;;;;4.68;2.70;;;;;;;20.12;72.82;99243.50;5063981;28;20347;-66
2021/08/12 06:30:06;;;;;;;6.35;2.97;;;;;;;20.70;71.32;99246.88;5063964;28;20025;-66
2021/08/12 06:32:32;;;;;;;5.55;2.80;;;;;;;21.30;69.45;99249.94;5063883;28;20036;-66
2021/08/12 06:34:57;;;;;;;4.90;3.15;;;;;;;21.54;69.54;99241.59;5063993;28;20021;-66
2021/08/12 06:37:24;;;;;;;6.60;2.75;;;;;;;21.91;66.66;99247.56;5063867;28;20032;-66
2021/08/12 06:39:50;;;;;;;5.35;2.90;;;;;;;22.05;67.43;99239.59;5063841;28;20317;-66
2021/08/12 06:42:15;;;;;;;11.68;3.45;;;;;;;22.52;67.80;99244.97;5063007;28;20338;-66
2021/08/12 06:44:41;;;;;;;6.45;3.40;;;;;;;23.05;64.08;99256.13;5063807;28;20029;-66
2021/08/12 06:47:06;;;;;;;6.50;3.35;;;;;;;23.50;63.33;99258.72;5062665;28;20051;-66
2021/08/12 06:49:32;;;;;;;6.55;3.10;;;;;;;23.53;64.29;99258.53;5063775;28;20029;-67
2021/08/12 06:51:57;;;;;;;11.75;3.40;;;;;;;24.04;63.42;99257.97;5062511;28;20220;-67
2021/08/12 06:54:22;;;;;;;7.57;3.85;;;;;;;23.67;62.58;99239.75;5063719;28;20025;-67
2021/08/12 06:56:48;;;;;;;8.82;3.53;;;;;;;24.34;61.99;99255.16;5063691;28;20082;-67
2021/08/12 06:59:13;;;;;;;7.95;3.47;;;;;;;24.87;60.56;99258.72;5063633;28;20028;-67
2021/08/12 07:01:38;;;;;;;7.38;3.25;;;;;;;24.95;60.36;99248.31;5063567;28;20044;-67
2021/08/12 07:04:04;;;;;;;5.57;3.60;;;;;;;25.53;59.87;99265.91;5063543;28;20080;-67
2021/08/12 07:06:29;;;;;;;9.30;3.60;;;;;;;26.17;57.16;99255.84;5063597;28;20208;-67
2021/08/12 07:08:55;;;;;;;7.45;3.67;;;;;;;26.34;56.48;99250.06;5062424;28;20028;-67
2021/08/12 07:11:22;;;;;;;12.35;3.28;;;;;;;26.85;57.75;99256.16;5063491;28;20056;-67
2021/08/12 07:13:49;;;;;;;6.40;3.67;;;;;;;27.24;55.65;99245.91;5063539;28;20025;-67
2021/08/12 07:16:14;;;;;;;9.00;3.75;;;;;;;26.63;57.41;99226.31;5063509;28;20021;-67
2021/08/12 07:18:44;;;;;;;6.30;3.30;;;;;;;27.54;54.54;99242.66;5063476;28;20025;-67
2021/08/12 07:21:20;;;;;;;8.90;3.88;;;;;;;27.45;56.29;99221.72;5063477;28;20187;-67
2021/08/12 07:23:49;;;;;;;7.20;4.18;;;;;;;27.79;53.79;99228.91;5063405;28;20024;-67
2021/08/12 07:26:16;;;;;;;9.93;4.00;;;;;;;27.94;53.90;99222.31;5063393;28;20021;-67
2021/08/12 07:28:43;;;;;;;9.20;3.88;;;;;;;27.45;54.07;99208.22;5063376;28;20066;-67
2021/08/12 07:31:11;;;;;;;5.45;3.60;;;;;;;28.03;53.65;99213.41;5063296;28;20096;-67
2021/08/12 07:33:37;;;;;;;10.93;3.85;;;;;;;28.47;52.37;99224.22;5063305;28;20033;-67
2021/08/12 07:36:04;;;;;;;10.00;4.07;;;;;;;28.69;52.52;99207.03;5063319;28;20051;-67
2021/08/12 07:38:30;;;;;;;8.00;4.05;;;;;;;28.82;52.50;99208.59;5063259;28;20021;-67
2021/08/12 07:40:56;;;;;;;10.90;4.63;;;;;;;28.70;52.65;99198.78;5063271;28;20317;-67
2021/08/12 07:43:22;;;;;;;6.47;3.60;;;;;;;29.02;52.56;99202.31;5063280;28;20036;-67
2021/08/12 07:45:47;;;;;;;7.45;3.75;;;;;;;28.42;53.95;99174.97;5063261;28;20101;-67
2021/08/12 07:48:14;;;;;;;9.15;3.97;;;;;;;28.86;52.57;99185.63;5063203;28;20020;-67
2021/08/12 07:50:39;;;;;;;6.78;4.07;;;;;;;28.84;52.33;99174.09;5063122;28;20017;-67
2021/08/12 07:53:05;;;;;;;7.72;4.03;;;;;;;29.95;51.98;99200.50;5064577;28;20028;-67
2021/08/12 07:55:31;;;;;;;9.00;4.47;;;;;;;30.36;49.03;99205.81;5066730;28;20213;-67
2021/08/12 07:57:56;;;;;;;6.97;3.65;;;;;;;30.87;47.92;99209.19;5066676;28;20021;-67
2021/08/12 08:00:22;;;;;;;8.10;4.43;;;;;;;31.11;48.67;99204.19;5066639;28;20021;-67
2021/08/12 08:02:48;;;;;;;8.85;4.20;;;;;;;31.71;46.44;99214.72;5066468;28;20040;-67
2021/08/12 08:05:22;;;;;;;6.03;4.03;;;;;;;31.20;47.04;99192.47;5066593;28;20080;-67
2021/08/12 08:07:49;;;;;;;8.63;4.18;;;;;;;31.23;48.06;99181.28;5066562;28;20320;-67
2021/08/12 08:10:19;;;;;;;7.53;3.95;;;;;;;31.70;46.54;99193.09;5066386;28;20020;-67
2021/08/12 08:12:45;;;;;;;10.77;4.35;;;;;;;32.21;45.56;99197.03;5066445;28;20033;-67
2021/08/12 08:15:12;;;;;;;6.88;3.72;;;;;;;32.05;45.87;99185.09;5066441;28;20291;-68
2021/08/12 08:17:38;;;;;;;9.20;4.75;;;;;;;32.04;46.09;99178.78;5066347;28;20319;-68
2021/08/12 08:20:05;;;;;;;6.70;3.90;;;;;;;32.35;44.85;99182.94;5066293;28;20084;-68
2021/08/12 08:22:31;;;;;;;6.68;4.38;;;;;;;32.18;45.31;99186.47;5066230;28;20016;-68
2021/08/12 08:24:56;;;;;;;5.93;4.20;;;;;;;32.11;46.20;99179.88;5066226;28;20032;-68
2021/08/12 08:27:22;;;;;;;6.68;4.22;;;;;;;32.35;45.85;99188.38;5066153;28;20029;-68
2021/08/12 08:29:47;;;;;;;6.80;4.15;;;;;;;32.63;44.98;99181.88;5066162;28;20064;-68
2021/08/12 08:32:13;;;;;;;7.78;4.00;;;;;;;32.73;44.14;99177.22;5065972;28;20036;-68
2021/08/12 08:34:38;;;;;;;6.38;3.97;;;;;;;32.28;46.54;99160.00;5066014;28;20288;-68
2021/08/12 08:37:04;;;;;;;8.07;4.32;;;;;;;32.77;45.21;99183.19;5066018;28;20085;-68
2021/08/12 08:39:29;;;;;;;9.35;4.03;;;;;;;32.52;46.73;99151.28;5065977;28;20028;-68
2021/08/12 08:41:55;;;;;;;6.05;3.95;;;;;;;33.02;44.83;99166.94;5065861;28;20056;-68
2021/08/12 08:44:24;;;;;;;8.65;4.22;;;;;;;32.54;44.62;99144.66;5065803;28;20316;-68
2021/08/12 08:46:50;;;;;;;6.28;4.53;;;;;;;32.05;44.84;99131.44;5065797;28;20029;-68
2021/08/12 08:49:19;;;;;;;10.75;4.43;;;;;;;32.37;46.23;99120.97;5065707;28;20335;-68
2021/08/12 08:51:46;;;;;;;7.72;4.90;;;;;;;33.18;42.87;99149.00;5065600;28;20032;-68
2021/08/12 08:54:12;;;;;;;7.70;4.20;;;;;;;33.43;42.91;99145.47;5065618;28;20028;-68
2021/08/12 08:56:41;;;;;;;9.27;4.38;;;;;;;33.37;41.91;99133.28;5065612;28;20096;-68
2021/08/12 08:59:07;;;;;;;6.95;4.43;;;;;;;33.65;41.82;99126.63;5065559;28;20092;-68
2021/08/12 09:01:38;;;;;;;8.55;4.15;;;;;;;32.60;41.87;99097.69;5065483;28;20043;-68
2021/08/12 09:04:03;;;;;;;6.93;4.85;;;;;;;33.20;39.80;99127.84;5064733;28;20028;-68
2021/08/12 09:06:29;;;;;;;8.13;4.63;;;;;;;33.23;40.73;99152.09;5065325;28;20092;-68
2021/08/12 09:08:55;;;;;;;9.70;4.55;;;;;;;33.70;39.68;99140.69;5065373;28;20017;-68
2021/08/12 09:11:25;;;;;;;8.43;4.70;;;;;;;32.96;40.44;99113.03;5065237;28;20097;-68
2021/08/12 09:13:51;;;;;;;9.23;4.85;;;;;;;33.20;39.89;99116.94;5065337;28;20021;-68
2021/08/12 09:16:34;;;;;;;8.45;4.65;;;;;;;33.12;41.04;99111.44;5065246;28;20032;-68
2021/08/12 09:19:29;;;;;;;7.60;4.57;;;;;;;34.20;39.44;99106.06;5065150;28;20224;-68
2021/08/12 09:21:58;;;;;;;10.63;4.80;;;;;;;32.92;40.54;99073.44;5064893;28;20092;-68
2021/08/12 09:24:24;;;;;;;10.55;4.80;;;;;;;32.16;41.47;99052.25;5065078;28;20031;-68
2021/08/12 09:26:50;;;;;;;8.80;4.90;;;;;;;31.82;40.41;99050.34;5065090;28;20025;-68
2021/08/12 09:29:29;;;;;;;5.75;4.38;;;;;;;32.67;40.61;99087.88;5064962;28;20025;-68
2021/08/12 09:32:03;;;;;;;7.97;4.55;;;;;;;33.10;40.82;99082.41;5064838;28;20029;-68
2021/08/12 09:34:46;;;;;;;11.02;4.47;;;;;;;33.08;40.35;99079.00;5064923;28;20096;-68
2021/08/12 09:37:13;;;;;;;7.75;4.57;;;;;;;33.32;38.50;99085.63;5064857;28;20212;-68
2021/08/12 09:39:39;;;;;;;7.15;4.50;;;;;;;33.01;39.58;99075.22;5064785;28;20070;-68
2021/08/12 09:42:05;;;;;;;7.75;5.07;;;;;;;32.23;39.52;99041.56;5064712;28;20027;-68
2021/08/12 09:44:34;;;;;;;7.68;4.75;;;;;;;31.07;41.69;99017.84;5064968;28;20243;-68
2021/08/12 09:47:02;;;;;;;8.82;5.13;;;;;;;32.18;41.40;99055.69;5063494;28;20216;-68
2021/08/12 09:49:44;;;;;;;10.00;5.35;;;;;;;31.52;41.70;99028.84;5064622;28;20173;-68
2021/08/12 09:52:37;;;;;;;11.02;5.57;;;;;;;31.48;41.93;99028.31;5064461;28;20021;-67
2021/08/12 09:55:09;;;;;;;12.20;5.63;;;;;;;31.84;42.63;99038.28;5064236;28;20074;-67
2021/08/12 09:57:41;;;;;;;8.70;5.45;;;;;;;30.92;41.66;99025.63;5064494;28;20017;-67
2021/08/12 10:00:11;;;;;;;10.52;5.53;;;;;;;30.84;41.19;99046.38;5064478;28;20025;-67
2021/08/12 10:02:37;;;;;;;10.10;5.22;;;;;;;31.59;41.62;99041.69;5064189;28;20044;-67
2021/08/12 10:05:10;;;;;;;11.38;5.32;;;;;;;31.62;41.14;99035.94;5064329;28;20021;-67
2021/08/12 10:07:44;;;;;;;8.38;5.20;;;;;;;31.15;41.40;99017.94;5064321;28;20275;-67
2021/08/12 10:10:21;;;;;;;6.20;4.90;;;;;;;31.33;40.27;99035.25;5064243;28;20367;-67
2021/08/12 10:12:58;;;;;;;7.57;5.25;;;;;;;31.08;41.65;99014.13;5063082;28;20375;-67
2021/08/12 10:15:29;;;;;;;11.75;5.72;;;;;;;31.15;40.37;99009.78;5064093;28;20071;-67
2021/08/12 10:17:57;;;;;;;8.57;5.43;;;;;;;31.15;40.85;99005.22;5064190;28;20021;-68
2021/08/12 10:20:27;;;;;;;10.13;5.38;;;;;;;31.39;42.54;99007.44;5064072;28;20201;-68
2021/08/12 10:22:55;;;;;;;8.98;5.03;;;;;;;30.85;42.30;98993.72;5064159;28;20021;-68
2021/08/12 10:25:22;;;;;;;8.63;5.53;;;;;;;30.85;43.65;98985.56;5064015;28;20017;-68
2021/08/12 10:27:51;;;;;;;8.35;5.65;;;;;;;30.63;44.70;98985.88;5064075;28;20021;-68
2021/08/12 10:30:19;;;;;;;8.40;5.95;;;;;;;30.77;44.75;98986.31;5063925;28;20024;-68
2021/08/12 10:32:51;;;;;;;9.68;5.93;;;;;;;30.91;46.65;98990.44;5063934;28;20029;-68
2021/08/12 10:35:17;;;;;;;11.15;5.70;;;;;;;30.84;42.00;98983.84;5064017;28;20040;-68
2021/08/12 10:37:42;;;;;;;11.52;5.70;;;;;;;30.28;42.88;98969.34;5063876;28;20039;-67
2021/08/12 10:40:12;;;;;;;8.23;5.47;;;;;;;30.54;43.08;98973.19;5063852;28;20343;-67
2021/08/12 10:42:42;;;;;;;8.40;5.78;;;;;;;30.39;43.19;98983.63;5064074;28;20331;-67
2021/08/12 10:45:08;;;;;;;10.35;5.75;;;;;;;30.20;41.30;98971.94;5063865;28;20220;-67
2021/08/12 10:47:37;;;;;;;8.07;5.88;;;;;;;29.95;41.40;98962.47;5063795;28;20032;-67
2021/08/12 10:50:27;;;;;;;11.27;6.25;;;;;;;30.34;42.38;98974.22;5063803;28;20032;-67
2021/08/12 10:53:04;;;;;;;8.23;5.57;;;;;;;30.74;43.19;98983.03;5063781;28;20029;-67
2021/08/12 10:55:30;;;;;;;9.80;6.20;;;;;;;30.93;42.84;98972.09;5063702;28;20067;-67
2021/08/12 10:58:18;;;;;;;8.30;5.60;;;;;;;31.73;43.56;98994.88;5062508;28;20029;-67
2021/08/12 11:00:48;;;;;;;10.07;5.47;;;;;;;32.01;43.25;98993.88;5063471;28;20156;-67
2021/08/12 11:03:14;;;;;;;9.13;5.73;;;;;;;32.11;41.14;98982.91;5063646;28;20021;-67
2021/08/12 11:06:01;;;;;;;8.93;5.63;;;;;;;32.26;41.62;98982.19;5063615;28;20032;-67
2021/08/12 11:08:48;;;;;;;12.38;5.80;;;;;;;32.59;39.46;98978.72;5063538;28;20316;-67
2021/08/12 11:11:20;;;;;;;7.35;5.43;;;;;;;32.26;39.34;98965.84;5063487;28;20029;-67
2021/08/12 11:13:45;;;;;;;;;;;;;;;32.11;39.57;98952.94;5063985;28;20032;-67
2021/08/12 11:16:10;;;;;;;8.45;5.43;;;;;;;32.13;42.50;98959.06;5063490;28;19904;-68
2021/08/12 11:18:42;;;;;;;8.13;5.13;;;;;;;31.99;41.56;98951.47;5063498;28;20209;-68
2021/08/12 11:21:37;;;;;;;10.30;5.63;;;;;;;32.09;41.16;98980.34;5063485;28;20220;-68
2021/08/12 11:24:27;;;;;;;9.07;5.50;;;;;;;31.90;41.24;98969.59;5063457;28;20032;-68
2021/08/12 11:26:52;;;;;;;7.93;5.35;;;;;;;31.81;41.41;98958.78;5062677;28;20059;-67
2021/08/12 11:29:30;;;;;;;10.15;6.18;;;;;;;31.73;42.24;98958.66;5066893;28;20035;-68
2021/08/12 11:31:55;;;;;;;10.57;5.78;;;;;;;31.61;44.45;98949.88;5067171;28;20029;-68
2021/08/12 11:34:27;;;;;;;8.65;5.35;;;;;;;31.71;42.08;98953.38;5067180;28;20021;-68